San Francisco, California
Current Conditions -  °F | °C
As of 8:56 PM on Thursday 30 Oct 2014 (Local Time) from KSFO Reporting Station
Broken Clouds Broken Clouds  
Wind Chill: 17°   Ceiling: 15000
Heat Index: 17°   Visibility: 10mi
Dew Point: 14°   Wind: 10mph
Humidity: 81%   Direction: 240°WSW
Pressure: 29.9"   Gusts: NA
Location:  37.78°N, 122.42°W
Report Text: KSFO 310356Z 24009KT 10SM FEW010 BKN150 17/14 A2990 RMK AO2 SLP125 T01720139
Loading
Personal Weather Stations






























Interactive Weather Map New forecast layout! Learn more

10-Day Weather Forecast

Advertisements
Track Severe Weather on mobile